KCKN

Details ICAO KCKN
Name CROOKSTON MUNI KIRKWOOD FLD
Region United States
Timezone America/Chicago (UTC-6.0)
Plans Departing 0
Arriving 1
Stats Elevation 899 ft / 274 m (AMSL)
Location 47.842137° -96.621175°
Runways 3
Magnetic Variation 2.717° E
Sunrise 2017-12-14 14:09:50 UTC / 2017-12-14 08:09:50 Local
Sunset 2017-12-14 22:35:33 UTC / 2017-12-14 16:35:33 Local
Advertisement - Login to hide

Runways

ID Width Length Bearing (true) Bearing (mag) Surface Threshold Offset Overrun Length
06 202 ft / 62 m 2,085 ft / 635 m 71.13° 68.41° Grass 0 ft / 0 m 0 ft / 0 m
13 75 ft / 23 m 4,294 ft / 1,309 m 133.20° 130.48° Asphalt 0 ft / 0 m 0 ft / 0 m
17 202 ft / 62 m 2,981 ft / 909 m 181.31° 178.59° Grass 0 ft / 0 m 0 ft / 0 m
24 202 ft / 62 m 2,085 ft / 635 m 251.14° 248.42° Grass 0 ft / 0 m 0 ft / 0 m
31 75 ft / 23 m 4,294 ft / 1,309 m 313.21° 310.49° Asphalt 0 ft / 0 m 0 ft / 0 m
35 202 ft / 62 m 2,981 ft / 909 m 1.31° 358.59° Grass 0 ft / 0 m 0 ft / 0 m

Map

Weather


0- 5 10 15 20 25 30 35+ Temperature / ° C

Clouds and Precipitation
Forecast for 2017-12-14 12:00 UTC. Updated an hour ago

Ground ~20,000 ft ~40,000 ft Winds

METAR

KCKN 141015Z AUTO 26003KT 10SM SCT010 BKN034 OVC075 M09/M11 A2999 RMK AO2

TAF

Not found

Frequencies

Unicom 122.70 MHz CTAF/UNICOM
Approach 118.10 MHz GRAND FORKS APP/DEP
Clearance 118.15 MHz CLNC DEL
Warning: Do not use this data for real-world aviation or navigation. No guarantee of current accuracy is given.